Time;durP1;ratioP1;P1;durP2;ratioP2;P2;SDS_P1;SDS_P2;PMS_P1;PMS_P2;Temp;Humidity;BMP_temperature;BMP_pressure;BME280_temperature;BME280_humidity;BME280_pressure;Samples;Min_cycle;Max_cycle;Signal;HPM_P1;HPM_P2
2022/07/24 00:01:34;;;;;;;;;;;;;;;19.06;74.01;99730.50;4992145;28;1969;-72
2022/07/24 00:04:02;;;;;;;;;;;;;;;19.14;73.89;99734.59;4992171;28;843;-72
2022/07/24 00:06:28;;;;;;;;;;;;;;;19.16;73.84;99737.66;4992107;28;827;-72
2022/07/24 00:08:55;;;;;;;;;;;;;;;19.06;74.20;99731.28;4992120;28;831;-72
2022/07/24 00:11:21;;;;;;;;;;;;;;;18.89;74.68;99736.38;4992396;28;803;-71
2022/07/24 00:13:48;;;;;;;;;;;;;;;18.74;74.86;99726.94;4974694;28;1150;-70
2022/07/24 00:16:14;;;;;;;;;;;;;;;18.68;74.57;99728.78;4992095;28;827;-70
2022/07/24 00:18:41;;;;;;;;;;;;;;;18.62;74.42;99716.63;4992072;28;958;-70
2022/07/24 00:21:08;;;;;;;;;;;;;;;18.56;73.61;99720.03;4991857;28;1882;-72
2022/07/24 00:23:34;;;;;;;;;;;;;;;18.46;73.56;99724.03;4992268;28;752;-70
2022/07/24 00:26:02;;;;;;;;;;;;;;;18.33;73.63;99720.53;4992627;28;823;-72
2022/07/24 00:28:29;;;;;;;;;;;;;;;18.26;73.46;99715.19;4974410;28;1229;-72
2022/07/24 00:30:56;;;;;;;;;;;;;;;18.36;72.29;99716.81;4991942;28;823;-72
2022/07/24 00:33:22;;;;;;;;;;;;;;;18.48;71.18;99713.16;4991871;28;961;-71
2022/07/24 00:35:49;;;;;;;;;;;;;;;18.54;70.49;99725.31;4992146;28;891;-70
2022/07/24 00:38:15;;;;;;;;;;;;;;;18.55;69.90;99717.69;4974433;28;1341;-70
2022/07/24 00:40:43;;;;;;;;;;;;;;;18.55;69.66;99714.88;4974369;28;1242;-72
2022/07/24 00:43:09;;;;;;;;;;;;;;;18.52;69.80;99704.59;4991733;28;1886;-72
2022/07/24 00:45:36;;;;;;;;;;;;;;;18.49;69.89;99702.72;4991842;28;879;-71
2022/07/24 00:48:02;;;;;;;;;;;;;;;18.35;70.20;99702.06;4974238;28;1370;-70
2022/07/24 00:50:29;;;;;;;;;;;;;;;18.13;71.07;99704.09;4974236;28;1303;-70
2022/07/24 00:52:56;;;;;;;;;;;;;;;17.92;71.72;99698.06;4991795;28;807;-71
2022/07/24 00:55:23;;;;;;;;;;;;;;;17.90;71.59;99697.75;4990492;28;1644;-72
2022/07/24 00:57:50;;;;;;;;;;;;;;;17.83;71.78;99698.00;4993457;28;768;-71
2022/07/24 01:00:21;;;;;;;;;;;;;;;17.75;72.15;99699.44;4994374;28;1154;-72
2022/07/24 01:02:49;;;;;;;;;;;;;;;17.62;72.39;99699.50;4995232;28;1972;-72
2022/07/24 01:05:16;;;;;;;;;;;;;;;17.57;72.63;99700.09;4995300;28;851;-72
2022/07/24 01:07:42;;;;;;;;;;;;;;;17.58;72.61;99698.88;4995537;28;882;-72
2022/07/24 01:10:09;;;;;;;;;;;;;;;17.57;72.49;99691.72;4995262;28;862;-70
2022/07/24 01:12:37;;;;;;;;;;;;;;;17.49;72.93;99696.00;4995326;28;811;-70
2022/07/24 01:15:05;;;;;;;;;;;;;;;17.46;72.87;99692.09;4995084;28;894;-70
2022/07/24 01:17:33;;;;;;;;;;;;;;;17.49;72.76;99693.97;4995103;28;823;-72
2022/07/24 01:20:01;;;;;;;;;;;;;;;17.55;72.76;99685.78;4994830;28;875;-72
2022/07/24 01:22:28;;;;;;;;;;;;;;;17.58;72.65;99684.09;4994907;28;1886;-72
2022/07/24 01:24:54;;;;;;;;;;;;;;;17.64;72.50;99679.50;4994848;28;921;-72
2022/07/24 01:27:21;;;;;;;;;;;;;;;17.54;72.54;99687.03;4994912;28;815;-72
2022/07/24 01:29:48;;;;;;;;;;;;;;;17.51;72.44;99680.31;4994811;28;815;-72
2022/07/24 01:32:14;;;;;;;;;;;;;;;17.43;72.88;99675.44;4994830;28;847;-70
2022/07/24 01:34:41;;;;;;;;;;;;;;;17.57;71.97;99674.94;4995076;28;986;-72
2022/07/24 01:37:08;;;;;;;;;;;;;;;17.75;71.05;99675.09;4994850;28;811;-70
2022/07/24 01:39:34;;;;;;;;;;;;;;;17.73;70.99;99671.97;4994572;28;835;-70
2022/07/24 01:42:01;;;;;;;;;;;;;;;17.80;70.54;99675.75;4994600;28;1878;-70
2022/07/24 01:44:28;;;;;;;;;;;;;;;17.86;70.10;99669.13;4994539;28;851;-72
2022/07/24 01:46:55;;;;;;;;;;;;;;;17.88;69.92;99661.06;4994370;28;1335;-72
2022/07/24 01:49:21;;;;;;;;;;;;;;;17.83;69.84;99664.44;4994404;28;807;-70
2022/07/24 01:51:48;;;;;;;;;;;;;;;17.79;69.89;99660.97;4994590;28;831;-70
2022/07/24 01:54:14;;;;;;;;;;;;;;;17.85;69.52;99655.63;4994311;28;843;-71
2022/07/24 01:56:41;;;;;;;;;;;;;;;17.92;69.12;99660.94;4976898;28;851;-72
2022/07/24 01:59:07;;;;;;;;;;;;;;;17.98;68.74;99652.75;4994268;28;803;-72
2022/07/24 02:01:35;;;;;;;;;;;;;;;18.02;68.62;99656.94;4994172;28;1902;-72
2022/07/24 02:04:02;;;;;;;;;;;;;;;18.07;68.75;99659.19;4994247;28;744;-72
2022/07/24 02:06:29;;;;;;;;;;;;;;;18.13;68.50;99660.13;4994157;28;894;-72
2022/07/24 02:08:55;;;;;;;;;;;;;;;18.16;68.47;99662.00;4993308;28;930;-70
2022/07/24 02:11:22;;;;;;;;;;;;;;;18.14;68.54;99658.13;4994091;28;810;-70
2022/07/24 02:13:48;;;;;;;;;;;;;;;18.06;68.52;99657.59;4976592;28;1369;-71
2022/07/24 02:16:15;;;;;;;;;;;;;;;17.90;68.99;99655.00;4993895;28;877;-70
2022/07/24 02:18:41;;;;;;;;;;;;;;;17.77;69.48;99655.06;4994139;28;736;-70
2022/07/24 02:21:08;;;;;;;;;;;;;;;17.85;69.26;99655.63;4976309;28;1119;-70
2022/07/24 02:23:35;;;;;;;;;;;;;;;18.06;68.46;99657.59;4976192;28;1887;-70
2022/07/24 02:26:01;;;;;;;;;;;;;;;18.22;68.18;99655.81;4994037;28;846;-72
2022/07/24 02:28:28;;;;;;;;;;;;;;;18.29;68.11;99647.16;4993777;28;882;-71
2022/07/24 02:30:55;;;;;;;;;;;;;;;18.33;68.25;99647.81;4993717;28;881;-72
2022/07/24 02:33:21;;;;;;;;;;;;;;;18.40;67.82;99655.13;4993504;28;917;-70
2022/07/24 02:35:48;;;;;;;;;;;;;;;18.42;67.45;99658.25;4993622;28;891;-72
2022/07/24 02:38:15;;;;;;;;;;;;;;;18.44;67.02;99655.78;4993581;28;815;-72
2022/07/24 02:40:41;;;;;;;;;;;;;;;18.47;66.81;99652.81;4993488;28;859;-71
2022/07/24 02:43:07;;;;;;;;;;;;;;;18.49;66.80;99653.13;4975815;28;1973;-70
2022/07/24 02:45:34;;;;;;;;;;;;;;;18.49;66.44;99655.94;4993456;28;752;-72
2022/07/24 02:48:01;;;;;;;;;;;;;;;18.53;66.18;99650.22;4993148;28;1278;-72
2022/07/24 02:50:31;;;;;;;;;;;;;;;18.50;65.95;99645.53;4993371;28;819;-72
2022/07/24 02:52:57;;;;;;;;;;;;;;;18.48;65.96;99654.38;4993286;28;881;-72
2022/07/24 02:55:24;;;;;;;;;;;;;;;18.49;65.67;99657.97;4993213;28;898;-72
2022/07/24 02:57:50;;;;;;;;;;;;;;;18.52;65.54;99657.81;4993158;28;939;-72
2022/07/24 03:00:17;;;;;;;;;;;;;;;18.51;65.49;99664.66;4993443;28;835;-72
2022/07/24 03:02:43;;;;;;;;;;;;;;;18.48;65.46;99667.59;4993077;28;1943;-70
2022/07/24 03:05:10;;;;;;;;;;;;;;;18.44;65.49;99664.94;4993083;28;922;-69
2022/07/24 03:07:37;;;;;;;;;;;;;;;18.45;65.44;99669.28;4993072;28;787;-71
2022/07/24 03:10:05;;;;;;;;;;;;;;;18.46;65.33;99665.25;4993103;28;851;-71
2022/07/24 03:12:31;;;;;;;;;;;;;;;18.46;65.32;99664.50;4992847;28;965;-72
2022/07/24 03:14:58;;;;;;;;;;;;;;;18.40;65.84;99660.72;4992870;28;843;-72
2022/07/24 03:17:24;;;;;;;;;;;;;;;18.32;66.17;99661.00;4992735;28;989;-72
2022/07/24 03:19:50;;;;;;;;;;;;;;;18.26;66.55;99662.81;4992798;28;803;-72
2022/07/24 03:22:17;;;;;;;;;;;;;;;18.24;66.75;99658.94;4992668;28;1890;-70
2022/07/24 03:24:44;;;;;;;;;;;;;;;18.21;67.09;99657.84;4992758;28;822;-70
2022/07/24 03:27:10;;;;;;;;;;;;;;;18.19;67.57;99648.34;4992763;28;909;-69
2022/07/24 03:29:37;;;;;;;;;;;;;;;18.19;67.76;99653.94;4992864;28;815;-72
2022/07/24 03:32:04;;;;;;;;;;;;;;;18.19;68.33;99651.16;4992689;28;878;-72
2022/07/24 03:34:30;;;;;;;;;;;;;;;18.16;68.51;99645.22;4992920;28;883;-71
2022/07/24 03:36:57;;;;;;;;;;;;;;;18.16;69.03;99644.47;4975086;28;1158;-71
2022/07/24 03:39:24;;;;;;;;;;;;;;;18.21;69.22;99651.47;4992458;28;826;-70
2022/07/24 03:41:50;;;;;;;;;;;;;;;18.25;69.13;99644.50;4992503;28;1945;-70
2022/07/24 03:44:17;;;;;;;;;;;;;;;18.30;69.23;99645.91;4992476;28;808;-72
2022/07/24 03:46:43;;;;;;;;;;;;;;;18.35;69.26;99642.53;4992120;28;1103;-72
2022/07/24 03:49:09;;;;;;;;;;;;;;;18.39;69.31;99639.56;4992332;28;850;-72
2022/07/24 03:51:36;;;;;;;;;;;;;;;18.42;69.49;99645.03;4992575;28;842;-72
2022/07/24 03:54:03;;;;;;;;;;;;;;;18.48;69.58;99634.81;4974999;28;1185;-72
2022/07/24 03:56:30;;;;;;;;;;;;;;;18.59;69.41;99644.78;4992432;28;878;-72
2022/07/24 03:58:57;;;;;;;;;;;;;;;18.77;68.32;99640.00;4992342;28;835;-70
2022/07/24 04:01:24;;;;;;;;;;;;;;;18.95;67.64;99639.31;4992301;28;1968;-70
2022/07/24 04:03:50;;;;;;;;;;;;;;;19.11;66.92;99648.66;4992476;28;851;-70
2022/07/24 04:06:17;;;;;;;;;;;;;;;19.27;66.59;99647.59;4992452;28;816;-70
2022/07/24 04:08:44;;;;;;;;;;;;;;;19.36;66.91;99642.75;4992922;28;828;-69
2022/07/24 04:11:11;;;;;;;;;;;;;;;19.47;67.08;99649.91;4992733;28;867;-70
2022/07/24 04:13:37;;;;;;;;;;;;;;;19.57;67.36;99646.66;4992390;28;819;-72
2022/07/24 04:16:04;;;;;;;;;;;;;;;19.68;67.63;99643.38;4992085;28;898;-72
2022/07/24 04:18:31;;;;;;;;;;;;;;;19.83;67.60;99651.16;4992647;28;831;-71
2022/07/24 04:20:57;;;;;;;;;;;;;;;19.95;67.15;99653.78;4992023;28;815;-70
2022/07/24 04:23:24;;;;;;;;;;;;;;;20.08;65.94;99648.00;4991907;28;1890;-72
2022/07/24 04:25:51;;;;;;;;;;;;;;;20.22;64.78;99640.16;4991992;28;815;-72
2022/07/24 04:28:17;;;;;;;;;;;;;;;20.39;63.89;99644.91;4991964;28;780;-71
2022/07/24 04:30:44;;;;;;;;;;;;;;;20.61;62.62;99646.72;4992142;28;827;-71
2022/07/24 04:33:10;;;;;;;;;;;;;;;20.80;61.65;99647.38;4994045;28;1025;-70
2022/07/24 04:35:37;;;;;;;;;;;;;;;20.91;61.25;99653.28;4978380;28;1305;-70
2022/07/24 04:38:04;;;;;;;;;;;;;;;21.01;60.87;99648.34;4995756;28;835;-72
2022/07/24 04:40:31;;;;;;;;;;;;;;;21.07;60.12;99645.69;4995726;28;862;-70
2022/07/24 04:42:58;;;;;;;;;;;;;;;21.20;59.77;99649.00;4978190;28;1965;-69
2022/07/24 04:45:24;;;;;;;;;;;;;;;21.29;59.12;99648.16;4978087;28;1258;-71
2022/07/24 04:47:51;;;;;;;;;;;;;;;21.40;58.88;99649.16;4995522;28;1410;-72
2022/07/24 04:50:17;;;;;;;;;;;;;;;21.53;58.34;99654.56;4995890;28;764;-70
2022/07/24 04:52:44;;;;;;;;;;;;;;;21.73;58.05;99650.31;4995465;28;918;-69
2022/07/24 04:55:12;;;;;;;;;;;;;;;21.91;58.09;99654.97;4995440;28;807;-70
2022/07/24 04:57:39;;;;;;;;;;;;;;;22.06;57.45;99655.75;4995474;28;839;-72
2022/07/24 05:00:07;;;;;;;;;;;;;;;22.19;57.12;99655.44;4995673;28;803;-72
2022/07/24 05:02:34;;;;;;;;;;;;;;;22.33;57.06;99659.56;4978080;28;1967;-72
2022/07/24 05:05:00;;;;;;;;;;;;;;;22.49;56.35;99658.25;4995275;28;894;-72
2022/07/24 05:07:27;;;;;;;;;;;;;;;22.71;56.49;99657.84;4995299;28;803;-72
2022/07/24 05:09:53;;;;;;;;;;;;;;;22.95;56.00;99658.41;4995485;28;827;-70
2022/07/24 05:12:20;;;;;;;;;;;;;;;23.13;55.72;99660.22;4995382;28;857;-70
2022/07/24 05:14:47;;;;;;;;;;;;;;;23.30;55.86;99666.09;4995025;28;807;-72
2022/07/24 05:17:14;;;;;;;;;;;;;;;23.49;55.34;99655.25;4995114;28;838;-69
2022/07/24 05:19:41;;;;;;;;;;;;;;;23.72;55.13;99661.91;4995077;28;810;-72
2022/07/24 05:22:08;;;;;;;;;;;;;;;23.97;54.96;99656.81;4994845;28;1882;-72
2022/07/24 05:24:34;;;;;;;;;;;;;;;24.12;54.36;99651.03;4994921;28;1026;-72
2022/07/24 05:27:01;;;;;;;;;;;;;;;24.22;54.06;99650.34;4995177;28;845;-71
2022/07/24 05:29:27;;;;;;;;;;;;;;;24.33;53.98;99646.84;4994863;28;858;-70
2022/07/24 05:31:54;;;;;;;;;;;;;;;24.44;53.45;99643.34;4994823;28;921;-69
2022/07/24 05:34:22;;;;;;;;;;;;;;;24.62;52.59;99645.81;4995121;28;978;-72
2022/07/24 05:36:49;;;;;;;;;;;;;;;24.89;51.97;99637.22;4994967;28;811;-70
2022/07/24 05:39:15;;;;;;;;;;;;;;;25.36;50.78;99638.47;4994640;28;1012;-72
2022/07/24 05:41:42;;;;;;;;;;;;;;;25.94;48.86;99635.25;4977331;28;1959;-72
2022/07/24 05:44:09;;;;;;;;;;;;;;;26.46;47.69;99639.63;4976148;28;832;-72
2022/07/24 05:46:35;;;;;;;;;;;;;;;26.97;46.28;99639.53;4976984;28;1075;-72
2022/07/24 05:49:02;;;;;;;;;;;;;;;27.42;45.39;99650.75;4994360;28;1295;-70
2022/07/24 05:51:29;;;;;;;;;;;;;;;27.97;43.32;99648.84;4994489;28;874;-70
2022/07/24 05:53:56;;;;;;;;;;;;;;;28.43;42.38;99643.56;4976855;28;1304;-70
2022/07/24 05:56:23;;;;;;;;;;;;;;;29.21;40.25;99644.06;4994394;28;827;-70
2022/07/24 05:58:50;;;;;;;;;;;;;;;30.48;37.47;99639.06;4976788;28;1245;-70
2022/07/24 06:01:16;;;;;;;;;;;;;;;31.85;35.66;99644.31;4994359;28;846;-71
2022/07/24 06:03:43;;;;;;;;;;;;;;;32.92;33.93;99637.97;4994113;28;1894;-72
2022/07/24 06:06:09;;;;;;;;;;;;;;;33.64;31.94;99650.75;4977057;28;882;-72
2022/07/24 06:08:36;;;;;;;;;;;;;;;34.19;30.88;99649.53;4994140;28;819;-72
2022/07/24 06:11:02;;;;;;;;;;;;;;;34.51;30.25;99648.97;4994077;28;846;-72
2022/07/24 06:13:29;;;;;;;;;;;;;;;34.92;29.78;99647.75;4976775;28;1181;-73
2022/07/24 06:15:56;;;;;;;;;;;;;;;35.27;29.79;99650.16;4993937;28;886;-73
2022/07/24 06:18:23;;;;;;;;;;;;;;;35.56;28.91;99644.84;4993959;28;817;-70
2022/07/24 06:20:49;;;;;;;;;;;;;;;35.88;28.31;99644.13;4993957;28;795;-70
2022/07/24 06:23:16;;;;;;;;;;;;;;;36.05;28.12;99636.91;4993817;28;1894;-70
2022/07/24 06:25:42;;;;;;;;;;;;;;;36.34;28.07;99638.06;4993793;28;831;-72
2022/07/24 06:28:09;;;;;;;;;;;;;;;36.29;27.82;99627.53;4976322;28;1316;-72
2022/07/24 06:30:36;;;;;;;;;;;;;;;36.61;27.34;99630.91;4993969;28;788;-72
2022/07/24 06:33:02;;;;;;;;;;;;;;;37.11;27.49;99634.44;4993651;28;952;-72
2022/07/24 06:35:32;;;;;;;;;;;;;;;37.28;26.52;99625.00;4993592;28;807;-71
2022/07/24 06:38:02;;;;;;;;;;;;;;;37.64;26.71;99625.69;4993638;28;827;-70
2022/07/24 06:40:29;;;;;;;;;;;;;;;38.03;25.95;99623.00;4993521;28;820;-71
2022/07/24 06:42:56;;;;;;;;;;;;;;;38.12;25.95;99620.19;4993590;28;1950;-70
2022/07/24 06:45:23;;;;;;;;;;;;;;;38.45;25.64;99616.91;4993454;28;800;-71
2022/07/24 06:47:50;;;;;;;;;;;;;;;38.64;25.07;99615.47;4993256;28;1251;-70
2022/07/24 06:50:17;;;;;;;;;;;;;;;38.59;25.20;99608.63;4975865;28;899;-70
2022/07/24 06:52:43;;;;;;;;;;;;;;;38.39;25.77;99611.44;4993443;28;942;-72
2022/07/24 06:55:10;;;;;;;;;;;;;;;37.90;26.00;99604.75;4993133;28;851;-72
2022/07/24 06:57:36;;;;;;;;;;;;;;;37.68;25.66;99595.06;4993257;28;882;-71
2022/07/24 07:00:05;;;;;;;;;;;;;;;37.88;25.38;99603.84;4993174;28;931;-70
2022/07/24 07:02:31;;;;;;;;;;;;;;;37.82;25.89;99600.47;4993030;28;1914;-70
2022/07/24 07:04:58;;;;;;;;;;;;;;;37.69;25.42;99602.38;4993090;28;824;-70
2022/07/24 07:07:25;;;;;;;;;;;;;;;37.84;25.56;99600.63;4993127;28;830;-72
2022/07/24 07:09:52;;;;;;;;;;;;;;;38.06;26.32;99602.38;4993016;28;873;-72
2022/07/24 07:12:19;;;;;;;;;;;;;;;38.33;26.51;99608.09;4992840;28;1007;-72
2022/07/24 07:14:46;;;;;;;;;;;;;;;38.59;25.63;99597.06;4975573;28;1379;-71
2022/07/24 07:17:12;;;;;;;;;;;;;;;38.64;25.50;99607.56;4992901;28;826;-72
2022/07/24 07:19:39;;;;;;;;;;;;;;;38.87;25.19;99603.47;4992922;28;885;-71
2022/07/24 07:22:06;;;;;;;;;;;;;;;39.07;24.99;99610.81;4992837;28;1882;-70
2022/07/24 07:24:32;;;;;;;;;;;;;;;39.54;24.71;99590.31;4992791;28;862;-71
2022/07/24 07:26:58;;;;;;;;;;;;;;;39.76;24.48;99591.94;4992735;28;863;-70
2022/07/24 07:29:25;;;;;;;;;;;;;;;39.93;25.01;99593.88;4992675;28;878;-69
2022/07/24 07:31:51;;;;;;;;;;;;;;;39.94;24.52;99577.25;4992599;28;834;-71
2022/07/24 07:34:18;;;;;;;;;;;;;;;40.15;23.86;99576.53;4992887;28;992;-71
2022/07/24 07:36:45;;;;;;;;;;;;;;;40.00;24.39;99584.22;4992815;28;859;-73
2022/07/24 07:39:12;;;;;;;;;;;;;;;39.74;24.29;99582.38;4975044;28;1302;-72
2022/07/24 07:41:39;;;;;;;;;;;;;;;39.49;24.48;99589.28;4992405;28;1907;-70
2022/07/24 07:44:06;;;;;;;;;;;;;;;38.89;25.34;99587.03;4992371;28;887;-70
2022/07/24 07:46:34;;;;;;;;;;;;;;;38.67;25.09;99585.38;4992632;28;819;-72
2022/07/24 07:49:01;;;;;;;;;;;;;;;38.83;26.10;99574.28;4991700;28;1326;-72
2022/07/24 07:51:28;;;;;;;;;;;;;;;39.33;24.82;99574.41;4992645;28;878;-72
2022/07/24 07:53:55;;;;;;;;;;;;;;;39.09;24.84;99569.72;4992276;28;836;-71
2022/07/24 08:08:31;;;;;;;;;;;;;;;39.11;25.89;99543.88;4991938;28;597;-73
2022/07/24 08:10:58;;;;;;;;;;;;;;;39.43;25.09;99547.63;4992120;28;820;-71
2022/07/24 08:13:26;;;;;;;;;;;;;;;39.47;25.03;99548.66;4992312;28;820;-71
2022/07/24 08:15:52;;;;;;;;;;;;;;;39.83;23.95;99554.78;4992091;28;858;-70
2022/07/24 08:18:19;;;;;;;;;;;;;;;39.77;23.18;99540.63;4992140;28;918;-70
2022/07/24 08:20:46;;;;;;;;;;;;;;;40.01;22.62;99541.63;4992053;28;815;-70
2022/07/24 08:23:13;;;;;;;;;;;;;;;39.71;21.83;99540.19;4992100;28;1969;-71
2022/07/24 08:25:39;;;;;;;;;;;;;;;39.07;22.31;99543.56;4991978;28;844;-69
2022/07/24 08:28:05;;;;;;;;;;;;;;;39.08;23.72;99542.97;4992066;28;1076;-72
2022/07/24 08:42:45;;;;;;;;;;;;;;;38.91;23.13;99546.75;4992006;28;1898;-71
2022/07/24 08:45:12;;;;;;;;;;;;;;;38.52;24.51;99543.13;4991830;28;831;-70
2022/07/24 08:48:05;;;;;;;;;;;;;;;;;;;;;
2022/07/24 08:51:08;;;;;;;;;;;;;;;38.79;23.57;99540.06;4990841;28;1120;-72
2022/07/24 08:53:43;;;;;;;;;;;;;;;38.86;23.57;99536.28;4989070;28;1125;-71
2022/07/24 08:56:09;;;;;;;;;;;;;;;38.75;23.36;99534.00;4991732;28;859;-72
2022/07/24 08:58:36;;;;;;;;;;;;;;;38.97;23.25;99527.03;4991775;28;819;-73
2022/07/24 09:01:03;;;;;;;;;;;;;;;39.11;23.58;99523.63;4991714;28;838;-71
2022/07/24 09:03:39;;;;;;;;;;;;;;;39.10;23.75;99525.03;4991694;28;1906;-73
2022/07/24 09:06:07;;;;;;;;;;;;;;;38.86;23.70;99509.50;4991717;28;886;-70
2022/07/24 09:11:38;;;;;;;;;;;;;;;38.27;24.57;99523.19;4988667;28;1223;-71
2022/07/24 09:16:52;;;;;;;;;;;;;;;38.68;24.60;99503.91;4991658;28;626;-71
2022/07/24 09:19:21;;;;;;;;;;;;;;;38.71;23.87;99501.97;4993915;28;803;-72
2022/07/24 09:21:49;;;;;;;;;;;;;;;38.67;24.64;99502.41;4994992;28;1975;-71
2022/07/24 09:24:20;;;;;;;;;;;;;;;38.54;24.21;99508.66;4977513;28;1172;-71
2022/07/24 09:26:48;;;;;;;;;;;;;;;38.20;24.12;99514.06;4994929;28;942;-71
2022/07/24 09:29:17;;;;;;;;;;;;;;;37.96;24.94;99503.50;4994906;28;878;-72
2022/07/24 09:31:53;;;;;;;;;;;;;;;38.11;25.04;99508.25;4995077;28;812;-71
2022/07/24 09:34:19;;;;;;;;;;;;;;;38.06;25.39;99497.78;4994723;28;1048;-69
2022/07/24 09:36:59;;;;;;;;;;;;;;;37.81;25.43;99507.41;4977231;28;1333;-70
2022/07/24 09:39:26;;;;;;;;;;;;;;;37.54;25.07;99496.69;4977382;28;1559;-71
2022/07/24 09:41:53;;;;;;;;;;;;;;;37.32;25.88;99489.91;4994451;28;1969;-70
2022/07/24 09:44:23;;;;;;;;;;;;;;;37.34;25.96;99490.06;4994654;28;830;-71
2022/07/24 09:46:59;;;;;;;;;;;;;;;37.40;25.55;99490.53;4977632;28;1316;-72
2022/07/24 09:49:26;;;;;;;;;;;;;;;37.08;26.25;99487.94;4994422;28;1275;-73
2022/07/24 09:52:12;;;;;;;;;;;;;;;37.02;26.05;99490.31;4976981;28;1436;-69
2022/07/24 09:54:48;;;;;;;;;;;;;;;36.95;26.54;99477.53;4994484;28;878;-72
2022/07/24 09:57:29;;;;;;;;;;;;;;;36.73;27.01;99485.13;4994333;28;848;-71
2022/07/24 10:00:00;;;;;;;;;;;;;;;36.68;27.42;99489.03;4994360;28;824;-73
2022/07/24 10:02:27;;;;;;;;;;;;;;;36.81;26.52;99476.38;4976831;28;1978;-72
2022/07/24 10:33:20;;;;;;;;;;;;;;;36.53;28.03;99464.03;5737549;23;1756;-71
2022/07/24 10:35:48;;;;;;;;;;;;;;;36.70;27.86;99461.19;4976266;28;1167;-69
2022/07/24 10:38:21;;;;;;;;;;;;;;;36.81;26.89;99459.13;4993673;28;870;-71
2022/07/24 10:40:48;;;;;;;;;;;;;;;36.96;27.51;99453.16;4993561;28;818;-70
2022/07/24 10:43:16;;;;;;;;;;;;;;;37.22;26.83;99468.19;4993458;28;1911;-70
2022/07/24 10:45:46;;;;;;;;;;;;;;;37.30;26.63;99449.41;4993505;28;836;-70
2022/07/24 10:48:19;;;;;;;;;;;;;;;37.38;25.58;99457.91;4993589;28;815;-73
2022/07/24 10:50:59;;;;;;;;;;;;;;;37.29;25.98;99453.66;4976166;28;1089;-72
2022/07/24 10:53:49;;;;;;;;;;;;;;;37.09;26.24;99447.03;4993376;28;866;-72
2022/07/24 10:56:24;;;;;;;;;;;;;;;36.75;26.13;99454.41;4975615;28;1339;-70
2022/07/24 10:58:53;;;;;;;;;;;;;;;37.08;26.25;99442.59;4993312;28;795;-73
2022/07/24 11:01:30;;;;;;;;;;;;;;;37.48;25.65;99440.69;4993237;28;819;-71
2022/07/24 11:04:23;;;;;;;;;;;;;;;37.52;24.76;99436.00;4992960;28;1981;-71
2022/07/24 11:07:00;;;;;;;;;;;;;;;37.40;24.91;99438.66;4993161;28;1122;-70
2022/07/24 11:10:11;;;;;;;;;;;;;;;37.64;25.19;99430.44;4992986;28;843;-75
2022/07/24 11:25:07;;;;;;;;;;;;;;;37.49;25.89;99428.56;4932983;29;1064;-73
2022/07/24 11:40:16;;;;;;;;;;;;;;;38.05;25.58;99416.25;4928401;29;1375;-68
2022/07/24 11:43:09;;;;;;;;;;;;;;;38.00;25.55;99429.59;4946564;28;1969;-69
2022/07/24 11:45:34;;;;;;;;;;;;;;;37.84;25.88;99421.84;4893746;29;1392;-74
2022/07/24 11:51:05;;;;;;;;;;;;;;;38.84;24.76;99425.63;4951745;29;980;-73
2022/07/24 11:53:31;;;;;;;;;;;;;;;38.86;24.60;99414.97;4951563;29;898;-69
2022/07/24 11:56:04;;;;;;;;;;;;;;;38.89;24.66;99415.88;4951641;29;859;-70
2022/07/24 12:10:40;;;;;;;;;;;;;;;39.78;23.70;99409.88;4951498;29;614;-71
2022/07/24 12:13:06;;;;;;;;;;;;;;;40.12;23.76;99413.59;4935277;29;1318;-70
2022/07/24 12:15:58;;;;;;;;;;;;;;;39.99;24.04;99399.72;4951251;29;1095;-74
2022/07/24 12:21:14;;;;;;;;;;;;;;;39.43;24.06;99400.19;4940924;29;1382;-70
2022/07/24 12:26:57;;;;;;;;;;;;;;;39.38;24.66;99390.47;4951372;29;638;-70
2022/07/24 12:29:44;;;;;;;;;;;;;;;39.45;24.37;99395.31;4970012;28;970;-71
2022/07/24 12:32:18;;;;;;;;;;;;;;;39.22;24.79;99393.00;4992063;28;1136;-74
2022/07/24 12:34:45;;;;;;;;;;;;;;;38.93;24.39;99390.19;4992241;28;859;-70
2022/07/24 12:53:29;;;;;;;;;;;;;;;39.91;23.66;99370.22;4932792;29;678;-74
2022/07/24 12:56:05;;;;;;;;;;;;;;;40.03;23.29;99370.28;4919699;29;1276;-70
2022/07/24 12:58:50;;;;;;;;;;;;;;;39.76;22.92;99362.72;4919674;29;1083;-71
2022/07/24 13:01:17;;;;;;;;;;;;;;;39.48;23.14;99358.66;4935443;29;870;-72
2022/07/24 13:03:49;;;;;;;;;;;;;;;39.79;23.00;99362.19;4935362;29;1930;-69
2022/07/24 13:06:16;;;;;;;;;;;;;;;39.73;22.66;99358.16;4935545;29;851;-70
2022/07/24 13:08:43;;;;;;;;;;;;;;;39.46;23.15;99364.28;4935230;29;843;-69
2022/07/24 13:11:10;;;;;;;;;;;;;;;39.53;23.50;99348.88;4935402;29;953;-70
2022/07/24 13:25:47;;;;;;;;;;;;;;;39.87;23.91;99336.00;4995192;28;637;-71
2022/07/24 13:28:14;;;;;;;;;;;;;;;39.80;24.40;99340.59;4995308;28;795;-70
2022/07/24 13:30:40;;;;;;;;;;;;;;;39.76;24.21;99325.84;4995036;28;835;-72
2022/07/24 13:33:07;;;;;;;;;;;;;;;39.84;24.39;99342.22;4995319;28;995;-74
2022/07/24 13:35:34;;;;;;;;;;;;;;;39.18;24.69;99329.13;4995062;28;863;-70
2022/07/24 13:38:01;;;;;;;;;;;;;;;38.87;25.67;99326.19;4993975;28;1323;-71
2022/07/24 13:40:47;;;;;;;;;;;;;;;39.04;26.33;99326.00;4995083;28;835;-70
2022/07/24 13:43:14;;;;;;;;;;;;;;;38.96;26.57;99317.53;4976971;28;1890;-72
2022/07/24 13:45:40;;;;;;;;;;;;;;;39.24;26.33;99323.00;4994658;28;886;-72
2022/07/24 13:48:06;;;;;;;;;;;;;;;38.98;25.46;99322.69;4977224;28;879;-73
2022/07/24 13:50:33;;;;;;;;;;;;;;;38.69;26.18;99317.00;4977022;28;1485;-69
2022/07/24 13:52:59;;;;;;;;;;;;;;;38.64;26.43;99315.94;4977110;28;1370;-70
2022/07/24 13:58:46;;;;;;;;;;;;;;;38.16;26.97;99308.91;4994450;28;630;-74
2022/07/24 14:01:12;;;;;;;;;;;;;;;37.87;27.34;99306.03;4977287;28;1216;-69
2022/07/24 14:03:41;;;;;;;;;;;;;;;37.81;27.71;99311.31;4994270;28;1977;-73
2022/07/24 14:09:18;;;;;;;;;;;;;;;37.95;27.81;99300.09;4994638;28;916;-75
2022/07/24 14:11:50;;;;;;;;;;;;;;;37.68;28.00;99306.78;4993960;28;977;-73
2022/07/24 14:14:20;;;;;;;;;;;;;;;37.61;28.53;99309.81;4994120;28;866;-72
2022/07/24 14:17:23;;;;;;;;;;;;;;;37.68;28.08;99308.91;4994015;28;867;-72
2022/07/24 14:20:14;;;;;;;;;;;;;;;37.51;28.90;99304.78;4994118;28;842;-74
2022/07/24 14:25:44;;;;;;;;;;;;;;;36.65;29.06;99303.88;4994008;28;672;-71
2022/07/24 14:28:41;;;;;;;;;;;;;;;36.41;30.37;99308.44;4993849;28;1189;-77
2022/07/24 14:43:22;;;;;;;;;;;;;;;34.87;31.81;99289.16;4993878;28;1902;-72
2022/07/24 14:45:48;;;;;;;;;;;;;;;34.36;32.40;99291.19;4976514;28;1249;-72
2022/07/24 14:48:16;;;;;;;;;;;;;;;34.21;32.77;99294.16;4993864;28;803;-72
2022/07/24 14:50:45;;;;;;;;;;;;;;;33.99;32.41;99292.88;4993227;28;1202;-71
2022/07/24 14:56:35;;;;;;;;;;;;;;;33.56;33.28;99284.78;4993382;28;692;-71
2022/07/24 14:59:02;;;;;;;;;;;;;;;33.34;33.24;99283.47;4993141;28;954;-71
2022/07/24 15:01:29;;;;;;;;;;;;;;;33.23;33.42;99277.41;4993243;28;877;-70
2022/07/24 15:03:56;;;;;;;;;;;;;;;33.10;33.13;99284.09;4993063;28;1982;-71
2022/07/24 15:06:22;;;;;;;;;;;;;;;33.11;33.41;99277.00;4993120;28;889;-73
2022/07/24 15:08:51;;;;;;;;;;;;;;;33.34;33.62;99282.72;4993067;28;835;-72
2022/07/24 15:11:21;;;;;;;;;;;;;;;33.36;33.18;99286.53;4993076;28;933;-70
2022/07/24 15:16:52;;;;;;;;;;;;;;;33.19;32.70;99291.31;4992625;28;1348;-71
2022/07/24 15:19:19;;;;;;;;;;;;;;;33.08;32.52;99287.50;4992914;28;906;-73
2022/07/24 15:21:46;;;;;;;;;;;;;;;33.06;32.70;99286.53;4975551;28;1882;-73
2022/07/24 15:24:13;;;;;;;;;;;;;;;33.23;33.17;99292.47;4992846;28;859;-73
2022/07/24 15:26:39;;;;;;;;;;;;;;;33.21;32.93;99294.38;4992820;28;843;-73
2022/07/24 15:41:17;;;;;;;;;;;;;;;33.23;31.87;99312.50;4992872;28;614;-74
2022/07/24 15:43:43;;;;;;;;;;;;;;;33.29;31.89;99313.06;4992446;28;1957;-72
2022/07/24 15:46:09;;;;;;;;;;;;;;;32.84;32.01;99317.44;4992534;28;839;-70
2022/07/24 15:48:36;;;;;;;;;;;;;;;32.60;32.43;99312.25;4992499;28;823;-70
2022/07/24 15:51:03;;;;;;;;;;;;;;;32.41;32.66;99321.91;4975210;28;1516;-69
2022/07/24 15:53:30;;;;;;;;;;;;;;;32.01;33.72;99321.56;4992426;28;831;-71
2022/07/24 15:55:56;;;;;;;;;;;;;;;31.66;34.16;99316.00;4992364;28;847;-73
2022/07/24 15:58:23;;;;;;;;;;;;;;;31.23;34.34;99316.66;4974743;28;1170;-72
2022/07/24 16:00:50;;;;;;;;;;;;;;;30.94;35.01;99310.91;4992639;28;811;-72
2022/07/24 16:03:17;;;;;;;;;;;;;;;30.74;35.49;99309.53;4992222;28;1910;-74
2022/07/24 16:05:43;;;;;;;;;;;;;;;30.54;35.63;99299.66;4992349;28;807;-70